Ashfield, Massachusetts
Current Conditions -  °F | °C
As of 9:52 PM on Monday 20 Oct 2014 (Local Time) from KAQW Reporting Station
Few Clouds Few Clouds  
Wind Chill: 46°   Ceiling: Unl
Heat Index: 48°   Visibility: 10mi
Dew Point: 36°   Wind: 5mph
Humidity: 63%   Direction: NA
Pressure: 29.95"   Gusts: NA
Location:  42.53°N, 72.79°W
Report Text: KAQW 210152Z AUTO VRB04KT 10SM FEW120 09/02 A2995 RMK AO2 SLP147 T00890022
Loading
Personal Weather Stations






























Interactive Weather Map
Tropical Storm Tracking
New forecast layout! Learn more

10-Day Weather Forecast

Advertisements
Track Severe Weather on mobile